createdAt,value
2018-03-04T00:00:46.801Z,99.47
2018-03-04T00:03:14.261Z,98.57
2018-03-04T00:05:41.727Z,96.23
2018-03-04T00:08:09.196Z,98.83
2018-03-04T00:10:36.670Z,111.60
2018-03-04T00:13:04.122Z,96.47
2018-03-04T00:15:31.592Z,109.00
2018-03-04T00:17:59.049Z,110.83
2018-03-04T00:20:26.520Z,120.33
2018-03-04T00:22:53.975Z,116.80
2018-03-04T00:25:21.444Z,118.10
2018-03-04T00:27:48.902Z,117.87
2018-03-04T00:30:16.380Z,103.13
2018-03-04T00:32:44.598Z,101.90
2018-03-04T00:35:12.074Z,104.23
2018-03-04T00:37:41.042Z,101.20
2018-03-04T00:40:08.515Z,108.63
2018-03-04T00:42:35.978Z,101.73
2018-03-04T00:45:03.586Z,104.27
2018-03-04T00:47:31.037Z,104.10
2018-03-04T00:49:59.258Z,110.00
2018-03-04T00:52:26.722Z,104.07
2018-03-04T00:54:54.174Z,109.97
2018-03-04T00:57:21.651Z,106.73
2018-03-04T00:59:49.107Z,106.33
2018-03-04T01:02:16.572Z,105.30
2018-03-04T01:04:44.033Z,107.03
2018-03-04T01:07:11.498Z,99.97
2018-03-04T01:09:38.965Z,107.67
2018-03-04T01:12:06.431Z,104.70
2018-03-04T01:14:33.896Z,111.03
2018-03-04T01:17:01.363Z,109.13
2018-03-04T01:19:28.836Z,107.10
2018-03-04T01:21:56.307Z,108.57
2018-03-04T01:24:23.774Z,111.03
2018-03-04T01:26:51.265Z,111.93
2018-03-04T01:29:19.488Z,111.77
2018-03-04T01:31:46.944Z,116.30
2018-03-04T01:34:14.405Z,111.87
2018-03-04T01:36:42.650Z,107.73
2018-03-04T01:39:10.109Z,109.80
2018-03-04T01:41:37.588Z,103.90
2018-03-04T01:44:05.049Z,112.00
2018-03-04T01:46:32.510Z,112.53
2018-03-04T01:48:59.980Z,109.73
2018-03-04T01:51:39.174Z,106.53
2018-03-04T01:54:06.645Z,109.33
2018-03-04T01:56:34.886Z,114.73
2018-03-04T01:59:02.338Z,106.77
2018-03-04T02:01:29.966Z,107.97
2018-03-04T02:03:57.418Z,108.37
2018-03-04T02:06:24.900Z,118.53
2018-03-04T02:08:52.369Z,111.30
2018-03-04T02:11:19.830Z,115.60
2018-03-04T02:13:47.305Z,110.70
2018-03-04T02:16:14.775Z,118.20
2018-03-04T02:18:42.230Z,115.83
2018-03-04T02:21:09.714Z,114.33
2018-03-04T02:23:37.169Z,114.90
2018-03-04T02:26:04.625Z,108.80
2018-03-04T02:28:32.102Z,112.07
2018-03-04T02:31:00.355Z,110.87
2018-03-04T02:33:27.798Z,119.93
2018-03-04T02:35:55.259Z,123.20
2018-03-04T02:38:22.752Z,112.70
2018-03-04T02:40:50.245Z,116.57
2018-03-04T02:43:17.708Z,111.90
2018-03-04T02:45:45.163Z,113.50
2018-03-04T02:48:12.625Z,109.83
2018-03-04T02:50:40.082Z,105.70
2018-03-04T02:53:07.556Z,106.37
2018-03-04T02:55:35.017Z,110.40
2018-03-04T02:58:02.490Z,104.53
2018-03-04T03:00:29.952Z,105.67
2018-03-04T03:02:57.414Z,115.73
2018-03-04T03:05:25.643Z,111.90
2018-03-04T03:07:54.020Z,114.17
2018-03-04T03:10:21.486Z,110.77
2018-03-04T03:12:48.949Z,108.73
2018-03-04T03:15:16.410Z,111.87
2018-03-04T03:17:43.874Z,111.33
2018-03-04T03:20:13.284Z,113.13
2018-03-04T03:22:40.770Z,112.87
2018-03-04T03:25:08.999Z,117.27
2018-03-04T03:27:36.476Z,115.80
2018-03-04T03:30:03.949Z,113.93
2018-03-04T03:32:31.407Z,114.23
2018-03-04T03:34:58.878Z,110.50
2018-03-04T03:37:26.371Z,107.93
2018-03-04T03:39:53.843Z,109.30
2018-03-04T03:42:21.316Z,106.00
2018-03-04T03:44:48.783Z,108.00
2018-03-04T03:47:16.256Z,110.37
2018-03-04T03:49:44.486Z,103.53
2018-03-04T03:52:11.950Z,101.87
2018-03-04T03:54:39.423Z,102.17
2018-03-04T03:57:06.894Z,103.73
2018-03-04T03:59:34.363Z,103.37
2018-03-04T04:02:01.824Z,106.47
2018-03-04T04:04:29.319Z,107.90
2018-03-04T04:06:56.773Z,107.97
2018-03-04T04:09:24.236Z,103.10
2018-03-04T04:11:51.722Z,101.87
2018-03-04T04:14:19.186Z,101.40
2018-03-04T04:16:47.411Z,98.77
2018-03-04T04:19:14.871Z,109.93
2018-03-04T04:21:42.348Z,107.87
2018-03-04T04:24:09.811Z,105.53
2018-03-04T04:26:37.283Z,106.83
2018-03-04T04:29:04.754Z,103.33
2018-03-04T04:31:32.234Z,101.17
2018-03-04T04:33:59.707Z,102.83
2018-03-04T04:36:27.180Z,106.03
2018-03-04T04:38:54.639Z,106.23
2018-03-04T04:41:22.112Z,105.17
2018-03-04T04:43:49.566Z,106.77
2018-03-04T04:46:17.043Z,105.90
2018-03-04T04:48:45.278Z,103.33
2018-03-04T04:51:12.763Z,104.60
2018-03-04T04:53:40.235Z,107.93
2018-03-04T04:56:07.694Z,106.13
2018-03-04T04:58:35.168Z,103.27
2018-03-04T05:01:02.633Z,100.77
2018-03-04T05:03:30.099Z,106.07
2018-03-04T05:05:57.559Z,104.40
2018-03-04T05:08:25.048Z,108.30
2018-03-04T05:10:52.523Z,108.03
2018-03-04T05:13:19.991Z,98.33
2018-03-04T05:15:48.225Z,107.83
2018-03-04T05:18:15.723Z,106.67
2018-03-04T05:20:43.193Z,101.57
2018-03-04T05:23:10.652Z,95.23
2018-03-04T05:25:38.120Z,94.77
2018-03-04T05:28:05.586Z,103.20
2018-03-04T05:30:33.048Z,102.37
2018-03-04T05:33:00.526Z,103.23
2018-03-04T05:35:27.991Z,105.67
2018-03-04T05:37:55.467Z,104.23
2018-03-04T05:40:22.930Z,108.20
2018-03-04T05:42:51.148Z,99.67
2018-03-04T05:45:18.621Z,105.53
2018-03-04T05:47:46.091Z,99.47
2018-03-04T05:50:13.560Z,101.93
2018-03-04T05:52:41.033Z,113.17
2018-03-04T05:55:08.524Z,104.07
2018-03-04T05:57:35.982Z,99.40
2018-03-04T06:00:03.447Z,97.27
2018-03-04T06:02:30.903Z,102.67
2018-03-04T06:04:58.382Z,104.70
2018-03-04T06:07:25.875Z,107.23
2018-03-04T06:09:54.119Z,105.70
2018-03-04T06:12:21.622Z,104.57
2018-03-04T06:14:49.066Z,100.47
2018-03-04T06:17:16.543Z,100.13
2018-03-04T06:19:44.009Z,106.27
2018-03-04T06:22:11.471Z,100.10
2018-03-04T06:24:38.945Z,102.83
2018-03-04T06:27:06.394Z,103.47
2018-03-04T06:29:33.878Z,96.47
2018-03-04T06:32:01.342Z,99.07
2018-03-04T06:34:28.807Z,110.67
2018-03-04T06:39:30.220Z,102.77
2018-03-04T06:41:57.671Z,98.83
2018-03-04T06:44:25.145Z,100.40
2018-03-04T06:46:52.609Z,96.40
2018-03-04T06:49:20.068Z,97.70
2018-03-04T06:51:47.555Z,99.40
2018-03-04T06:54:15.016Z,95.93
2018-03-04T06:56:42.488Z,96.83
2018-03-04T06:59:09.950Z,105.27
2018-03-04T07:01:37.419Z,102.87
2018-03-04T07:04:04.874Z,97.60
2018-03-04T07:06:32.346Z,101.80
2018-03-04T07:08:59.813Z,98.07
2018-03-04T07:11:27.279Z,102.13
2018-03-04T07:13:54.749Z,100.13
2018-03-04T07:16:22.222Z,105.07
2018-03-04T07:18:49.679Z,97.17
2018-03-04T07:21:17.159Z,96.97
2018-03-04T07:23:44.616Z,93.53
2018-03-04T07:26:12.075Z,100.73
2018-03-04T07:28:39.547Z,99.07
2018-03-04T07:31:07.051Z,95.10
2018-03-04T07:33:34.518Z,95.07
2018-03-04T07:36:01.980Z,99.33
2018-03-04T07:38:29.454Z,100.77
2018-03-04T07:40:57.674Z,103.47
2018-03-04T07:43:25.153Z,97.80
2018-03-04T07:45:52.602Z,104.53
2018-03-04T07:48:20.084Z,103.00
2018-03-04T07:50:47.542Z,109.57
2018-03-04T07:53:15.011Z,95.83
2018-03-04T07:55:42.477Z,100.40
2018-03-04T07:58:09.948Z,103.23
2018-03-04T08:00:37.417Z,105.93
2018-03-04T08:03:04.896Z,100.83
2018-03-04T08:05:32.374Z,103.97
2018-03-04T08:07:59.835Z,100.77
2018-03-04T08:10:27.350Z,110.03
2018-03-04T08:12:54.810Z,105.33
2018-03-04T08:15:22.287Z,101.07
2018-03-04T08:17:49.750Z,107.43
2018-03-04T08:20:17.220Z,103.80
2018-03-04T08:22:44.687Z,97.43
2018-03-04T08:25:23.931Z,96.17
2018-03-04T08:28:03.288Z,103.37
2018-03-04T08:30:30.766Z,109.57
2018-03-04T08:32:58.227Z,102.13
2018-03-04T08:35:25.714Z,102.80
2018-03-04T08:37:53.186Z,98.10
2018-03-04T08:40:20.697Z,99.60
2018-03-04T08:42:48.124Z,96.83
2018-03-04T08:45:15.584Z,100.77
2018-03-04T08:47:43.254Z,100.90
2018-03-04T08:50:10.719Z,103.63
2018-03-04T08:52:38.199Z,103.57
2018-03-04T08:55:05.731Z,101.07
2018-03-04T08:57:33.215Z,101.10
2018-03-04T09:00:00.687Z,101.50
2018-03-04T09:02:28.159Z,98.73
2018-03-04T09:04:56.383Z,104.40
2018-03-04T09:07:23.860Z,96.40
2018-03-04T09:09:51.335Z,93.33
2018-03-04T09:12:18.799Z,98.93
2018-03-04T09:14:46.299Z,95.83
2018-03-04T09:17:13.756Z,98.67
2018-03-04T09:19:41.226Z,94.37
2018-03-04T09:22:08.714Z,108.70
2018-03-04T09:24:36.178Z,96.10
2018-03-04T09:27:03.686Z,95.57
2018-03-04T09:29:31.167Z,102.47
2018-03-04T09:31:58.635Z,104.93
2018-03-04T09:34:26.101Z,97.97
2018-03-04T09:36:53.563Z,99.77
2018-03-04T09:39:21.026Z,104.20
2018-03-04T09:41:48.498Z,106.10
2018-03-04T09:44:15.988Z,102.47
2018-03-04T09:46:43.457Z,94.33
2018-03-04T09:49:10.919Z,98.50
2018-03-04T09:51:38.387Z,95.77
2018-03-04T09:54:05.867Z,100.73
2018-03-04T09:56:33.335Z,101.00
2018-03-04T09:59:00.836Z,95.87
2018-03-04T10:01:28.307Z,104.97
2018-03-04T10:03:55.795Z,108.13
2018-03-04T10:06:23.279Z,95.47
2018-03-04T10:08:50.805Z,101.67
2018-03-04T10:11:18.231Z,98.73
2018-03-04T10:13:45.706Z,102.63
2018-03-04T10:16:13.160Z,99.60
2018-03-04T10:18:40.658Z,101.83
2018-03-04T10:21:08.131Z,98.97
2018-03-04T10:23:35.596Z,103.93
2018-03-04T10:26:03.079Z,98.23
2018-03-04T10:28:30.541Z,99.60
2018-03-04T10:30:58.010Z,110.30
2018-03-04T10:33:25.467Z,93.97
2018-03-04T10:35:52.970Z,101.80
2018-03-04T10:38:20.463Z,104.03
2018-03-04T10:40:47.943Z,101.17
2018-03-04T10:43:15.399Z,99.17
2018-03-04T10:45:42.876Z,96.40
2018-03-04T10:48:11.102Z,101.63
2018-03-04T10:50:38.579Z,102.73
2018-03-04T10:53:06.040Z,104.97
2018-03-04T10:55:33.507Z,99.80
2018-03-04T10:58:00.971Z,102.00
2018-03-04T11:00:28.449Z,98.77
2018-03-04T11:03:00.331Z,92.73
2018-03-04T11:05:28.025Z,98.40
2018-03-04T11:07:55.503Z,100.20
2018-03-04T11:10:23.134Z,104.30
2018-03-04T11:12:50.618Z,96.27
2018-03-04T11:15:18.093Z,105.57
2018-03-04T11:17:45.563Z,96.17
2018-03-04T11:20:13.040Z,96.23
2018-03-04T11:22:40.531Z,102.23
2018-03-04T11:25:07.990Z,99.20
2018-03-04T11:27:35.451Z,92.60
2018-03-04T11:30:02.936Z,93.50
2018-03-04T11:32:31.167Z,96.67
2018-03-04T11:34:58.637Z,96.43
2018-03-04T11:37:26.130Z,97.80
2018-03-04T11:39:54.354Z,93.57
2018-03-04T11:42:21.832Z,94.53
2018-03-04T11:44:49.287Z,84.90
2018-03-04T11:47:16.755Z,100.00
2018-03-04T11:49:44.216Z,92.00
2018-03-04T11:52:11.687Z,92.17
2018-03-04T11:54:39.143Z,90.10
2018-03-04T11:57:06.623Z,80.90
2018-03-04T11:59:34.092Z,80.83
2018-03-04T12:02:01.556Z,79.37
2018-03-04T12:04:29.104Z,80.00
2018-03-04T12:06:56.574Z,83.30
2018-03-04T12:09:24.692Z,77.20
2018-03-04T12:11:52.118Z,74.90
2018-03-04T12:14:19.586Z,69.93
2018-03-04T12:16:47.066Z,71.63
2018-03-04T12:19:15.334Z,77.13
2018-03-04T12:21:42.769Z,77.57
2018-03-04T12:24:10.258Z,82.97
2018-03-04T12:26:38.487Z,84.87
2018-03-04T12:29:05.963Z,76.50
2018-03-04T12:31:33.424Z,76.13
2018-03-04T12:34:00.903Z,69.77
2018-03-04T12:36:29.143Z,78.03
2018-03-04T12:38:56.658Z,76.57
2018-03-04T12:41:24.150Z,79.70
2018-03-04T12:43:51.610Z,76.63
2018-03-04T12:46:19.076Z,74.70
2018-03-04T12:48:46.575Z,80.30
2018-03-04T12:51:14.044Z,82.57
2018-03-04T12:53:41.527Z,77.27
2018-03-04T12:56:09.045Z,73.23
2018-03-04T12:58:36.478Z,75.60
2018-03-04T13:01:03.955Z,72.03
2018-03-04T13:03:31.449Z,68.07
2018-03-04T13:05:58.956Z,72.70
2018-03-04T13:08:27.190Z,71.83
2018-03-04T13:10:54.655Z,70.47
2018-03-04T13:13:22.114Z,68.53
2018-03-04T13:15:49.591Z,70.00
2018-03-04T13:18:17.118Z,63.60
2018-03-04T13:20:45.307Z,65.23
2018-03-04T13:23:12.775Z,63.90
2018-03-04T13:25:40.251Z,66.10
2018-03-04T13:28:07.720Z,72.10
2018-03-04T13:30:35.187Z,65.17
2018-03-04T13:33:02.652Z,63.37
2018-03-04T13:35:30.127Z,62.87
2018-03-04T13:37:57.601Z,59.57
2018-03-04T13:40:25.079Z,60.47
2018-03-04T13:42:52.578Z,58.63
2018-03-04T13:45:20.048Z,63.17
2018-03-04T13:49:01.152Z,63.83
2018-03-04T13:51:28.627Z,64.33
2018-03-04T13:53:56.091Z,62.33
2018-03-04T13:56:23.615Z,67.33
2018-03-04T13:58:51.088Z,63.00
2018-03-04T14:01:18.578Z,59.37
2018-03-04T14:03:46.138Z,67.63
2018-03-04T14:07:59.902Z,63.17
2018-03-04T14:10:27.432Z,62.70
2018-03-04T14:12:54.898Z,59.50
2018-03-04T14:15:22.371Z,63.37
2018-03-04T14:19:23.870Z,57.17
2018-03-04T14:21:51.336Z,57.27
2018-03-04T14:24:18.811Z,60.77
2018-03-04T14:26:46.266Z,55.43
2018-03-04T14:29:13.749Z,51.13
2018-03-04T14:31:41.970Z,55.90
2018-03-04T14:34:09.439Z,53.20
2018-03-04T14:37:24.372Z,58.00
2018-03-04T14:41:48.067Z,58.63
2018-03-04T14:44:15.596Z,53.03
2018-03-04T14:46:43.128Z,58.73
2018-03-04T14:49:10.592Z,60.10
2018-03-04T17:27:29.651Z,53.83
2018-03-04T17:29:57.112Z,51.67
2018-03-04T17:32:24.596Z,54.33
2018-03-04T17:34:52.068Z,52.77
2018-03-04T17:37:19.595Z,54.83
2018-03-04T17:39:47.047Z,52.50
2018-03-04T17:42:14.534Z,50.80
2018-03-04T17:44:41.987Z,56.67
2018-03-04T17:47:09.458Z,51.90
2018-03-04T17:49:36.926Z,49.30
2018-03-04T17:52:04.403Z,61.77
2018-03-04T17:54:31.863Z,56.30
2018-03-04T17:56:59.373Z,50.63
2018-03-04T17:59:27.610Z,51.93
2018-03-04T18:01:55.079Z,54.20
2018-03-04T18:04:22.540Z,57.43
2018-03-04T18:06:49.998Z,53.67
2018-03-04T18:09:17.472Z,54.87
2018-03-04T18:11:44.980Z,55.20
2018-03-04T18:14:12.468Z,55.77
2018-03-04T18:16:39.939Z,56.57
2018-03-04T18:19:07.451Z,55.23
2018-03-04T18:21:34.951Z,56.27
2018-03-04T18:24:02.427Z,55.27
2018-03-04T18:26:29.898Z,53.53
2018-03-04T18:28:57.386Z,50.93
2018-03-04T18:31:24.843Z,58.33
2018-03-04T18:33:52.305Z,56.93
2018-03-04T18:36:19.763Z,51.03
2018-03-04T18:38:47.244Z,54.93
2018-03-04T18:41:14.727Z,55.40
2018-03-04T18:43:42.202Z,57.97
2018-03-04T18:46:09.664Z,53.87
2018-03-04T18:48:37.256Z,54.97
2018-03-04T18:51:04.719Z,55.83
2018-03-04T18:53:32.188Z,50.43
2018-03-04T18:55:59.647Z,55.57
2018-03-04T18:58:27.131Z,52.77
2018-03-04T19:00:54.599Z,55.73
2018-03-04T19:03:22.048Z,55.67
2018-03-04T19:05:49.528Z,54.43
2018-03-04T19:08:16.979Z,57.27
2018-03-04T19:10:44.448Z,56.37
2018-03-04T19:13:11.898Z,49.57
2018-03-04T19:15:39.371Z,49.80
2018-03-04T19:18:07.595Z,54.37
2018-03-04T19:20:35.835Z,54.25
2018-03-04T19:23:03.294Z,52.87
2018-03-04T19:25:30.765Z,50.47
2018-03-04T19:27:58.216Z,55.73
2018-03-04T19:30:25.682Z,57.53
2018-03-04T19:32:53.132Z,55.47
2018-03-04T19:35:20.598Z,56.53
2018-03-04T19:37:48.056Z,57.13
2018-03-04T19:40:15.532Z,56.90
2018-03-04T19:42:42.988Z,50.17
2018-03-04T19:45:10.455Z,52.60
2018-03-04T19:47:37.911Z,46.97
2018-03-04T19:50:05.391Z,54.00
2018-03-04T19:52:32.844Z,56.77
2018-03-04T19:55:00.323Z,55.07
2018-03-04T19:57:27.779Z,52.13
2018-03-04T19:59:55.256Z,51.23
2018-03-04T20:02:22.719Z,52.07
2018-03-04T20:04:50.175Z,51.03
2018-03-04T20:07:17.660Z,56.63
2018-03-04T20:09:45.887Z,51.67
2018-03-04T20:12:13.360Z,52.30
2018-03-04T20:14:40.824Z,52.93
2018-03-04T20:17:08.299Z,50.83
2018-03-04T20:19:35.763Z,53.33
2018-03-04T20:22:03.223Z,51.17
2018-03-04T20:24:30.694Z,55.60
2018-03-04T20:26:58.159Z,54.13
2018-03-04T20:29:25.632Z,53.73
2018-03-04T20:31:53.144Z,52.20
2018-03-04T20:34:20.563Z,53.07
2018-03-04T20:36:48.031Z,52.40
2018-03-04T20:39:15.487Z,58.73
2018-03-04T20:41:42.959Z,55.07
2018-03-04T20:44:11.200Z,50.97
2018-03-04T20:46:38.670Z,53.07
2018-03-04T20:49:06.132Z,54.13
2018-03-04T20:51:33.600Z,59.27
2018-03-04T20:54:01.056Z,53.47
2018-03-04T20:56:28.510Z,50.97
2018-03-04T20:58:55.982Z,54.73
2018-03-04T21:01:23.444Z,56.10
2018-03-04T21:03:50.912Z,50.83
2018-03-04T21:06:18.377Z,54.13
2018-03-04T21:08:45.850Z,52.07
2018-03-04T21:11:13.316Z,54.87
2018-03-04T21:13:40.784Z,53.10
2018-03-04T21:16:08.243Z,53.10
2018-03-04T21:18:35.711Z,52.73
2018-03-04T21:21:03.167Z,49.40
2018-03-04T21:23:30.631Z,49.33
2018-03-04T21:25:58.095Z,50.50
2018-03-04T21:28:25.564Z,54.37
2018-03-04T21:30:53.780Z,48.47
2018-03-04T21:33:21.238Z,49.57
2018-03-04T21:35:49.511Z,50.60
2018-03-04T21:38:16.979Z,52.90
2018-03-04T21:40:44.436Z,51.17
2018-03-04T21:43:11.910Z,54.70
2018-03-04T21:45:39.367Z,52.60
2018-03-04T21:48:06.837Z,48.37
2018-03-04T21:50:34.301Z,53.20
2018-03-04T21:53:01.771Z,51.07
2018-03-04T21:55:29.242Z,46.23
2018-03-04T21:57:56.717Z,52.87
2018-03-04T22:00:24.175Z,49.07
2018-03-04T22:02:52.473Z,49.77
2018-03-04T22:05:19.923Z,51.53
2018-03-04T22:07:47.426Z,51.40
2018-03-04T22:10:14.894Z,47.90
2018-03-04T22:12:42.359Z,48.17
2018-03-04T22:15:09.828Z,48.07
2018-03-04T22:17:37.299Z,52.20
2018-03-04T22:20:04.772Z,49.40
2018-03-04T22:22:32.231Z,48.00
2018-03-04T22:24:59.716Z,49.47
2018-03-04T22:27:27.196Z,48.00
2018-03-04T22:29:54.676Z,49.80
2018-03-04T22:32:22.165Z,55.93
2018-03-04T22:34:49.640Z,48.13
2018-03-04T22:37:17.119Z,48.00
2018-03-04T22:39:45.353Z,47.10
2018-03-04T22:42:12.812Z,51.57
2018-03-04T22:44:40.295Z,49.07
2018-03-04T22:47:07.772Z,45.43
2018-03-04T22:49:35.244Z,51.73
2018-03-04T22:52:02.702Z,48.93
2018-03-04T22:54:30.213Z,48.70
2018-03-04T22:56:57.688Z,44.63
2018-03-04T22:59:25.189Z,44.43
2018-03-04T23:01:52.644Z,47.15
2018-03-04T23:04:20.104Z,45.43
2018-03-04T23:06:47.605Z,47.00
2018-03-04T23:09:15.067Z,48.43
2018-03-04T23:11:42.539Z,41.67
2018-03-04T23:14:09.991Z,48.57
2018-03-04T23:16:37.471Z,48.40
2018-03-04T23:19:05.698Z,48.53
2018-03-04T23:21:33.170Z,46.87
2018-03-04T23:24:00.631Z,49.37
2018-03-04T23:26:28.088Z,46.77
2018-03-04T23:28:55.543Z,46.83
2018-03-04T23:31:23.016Z,45.13
2018-03-04T23:33:51.230Z,45.10
2018-03-04T23:36:18.707Z,51.27
2018-03-04T23:38:46.171Z,45.17
2018-03-04T23:41:13.648Z,50.77
2018-03-04T23:43:41.099Z,43.63
2018-03-04T23:46:08.556Z,43.40
2018-03-04T23:48:36.019Z,45.53
2018-03-04T23:51:03.475Z,45.57
2018-03-04T23:53:30.936Z,44.43
2018-03-04T23:55:58.395Z,45.57
2018-03-04T23:58:25.859Z,42.67
